sensor_id;sensor_type;location;lat;lon;timestamp;P1;durP1;ratioP1;P2;durP2;ratioP2
1020;SDS011;499;42.648;23.270;2022-12-08T00:01:47;1.67;;;1.57;;
1020;SDS011;499;42.648;23.270;2022-12-08T00:04:14;0.80;;;0.80;;
1020;SDS011;499;42.648;23.270;2022-12-08T00:06:43;1.53;;;1.20;;
1020;SDS011;499;42.648;23.270;2022-12-08T00:09:28;8.70;;;4.33;;
1020;SDS011;499;42.648;23.270;2022-12-08T00:11:58;0.90;;;0.90;;
1020;SDS011;499;42.648;23.270;2022-12-08T00:14:27;1.37;;;1.10;;
1020;SDS011;499;42.648;23.270;2022-12-08T00:16:55;1.77;;;1.67;;
1020;SDS011;499;42.648;23.270;2022-12-08T00:19:24;1.10;;;1.10;;
1020;SDS011;499;42.648;23.270;2022-12-08T00:21:53;2.63;;;2.47;;
1020;SDS011;499;42.648;23.270;2022-12-08T00:24:21;1.20;;;1.10;;
1020;SDS011;499;42.648;23.270;2022-12-08T00:26:49;1.20;;;0.90;;
1020;SDS011;499;42.648;23.270;2022-12-08T00:29:16;2.03;;;1.93;;
1020;SDS011;499;42.648;23.270;2022-12-08T00:31:44;1.57;;;1.47;;
1020;SDS011;499;42.648;23.270;2022-12-08T00:34:11;1.77;;;1.57;;
1020;SDS011;499;42.648;23.270;2022-12-08T00:36:39;1.00;;;1.00;;
1020;SDS011;499;42.648;23.270;2022-12-08T00:39:07;2.30;;;2.20;;
1020;SDS011;499;42.648;23.270;2022-12-08T00:41:35;2.40;;;1.47;;
1020;SDS011;499;42.648;23.270;2022-12-08T00:44:19;1.47;;;1.33;;
1020;SDS011;499;42.648;23.270;2022-12-08T00:46:46;1.07;;;1.07;;
1020;SDS011;499;42.648;23.270;2022-12-08T00:49:14;1.40;;;1.30;;
1020;SDS011;499;42.648;23.270;2022-12-08T00:51:42;0.80;;;0.80;;
1020;SDS011;499;42.648;23.270;2022-12-08T00:54:11;1.30;;;1.20;;
1020;SDS011;499;42.648;23.270;2022-12-08T00:56:38;0.90;;;0.90;;
1020;SDS011;499;42.648;23.270;2022-12-08T00:59:05;1.77;;;1.57;;
1020;SDS011;499;42.648;23.270;2022-12-08T01:01:33;1.73;;;1.10;;
1020;SDS011;499;42.648;23.270;2022-12-08T01:04:01;0.90;;;0.90;;
1020;SDS011;499;42.648;23.270;2022-12-08T01:06:29;1.83;;;1.73;;
1020;SDS011;499;42.648;23.270;2022-12-08T01:08:56;2.30;;;2.03;;
1020;SDS011;499;42.648;23.270;2022-12-08T01:11:25;1.30;;;1.20;;
1020;SDS011;499;42.648;23.270;2022-12-08T01:13:52;0.90;;;0.90;;
1020;SDS011;499;42.648;23.270;2022-12-08T01:16:20;1.20;;;1.00;;
1020;SDS011;499;42.648;23.270;2022-12-08T01:18:48;0.90;;;0.90;;
1020;SDS011;499;42.648;23.270;2022-12-08T01:21:16;0.90;;;0.90;;
1020;SDS011;499;42.648;23.270;2022-12-08T01:23:43;1.83;;;1.73;;
1020;SDS011;499;42.648;23.270;2022-12-08T01:26:11;1.00;;;1.00;;
1020;SDS011;499;42.648;23.270;2022-12-08T01:28:41;0.70;;;0.70;;
1020;SDS011;499;42.648;23.270;2022-12-08T01:31:09;1.87;;;1.27;;
1020;SDS011;499;42.648;23.270;2022-12-08T01:33:38;1.83;;;1.73;;
1020;SDS011;499;42.648;23.270;2022-12-08T01:36:06;1.13;;;0.90;;
1020;SDS011;499;42.648;23.270;2022-12-08T01:38:34;1.30;;;1.20;;
1020;SDS011;499;42.648;23.270;2022-12-08T01:41:01;1.53;;;1.10;;
1020;SDS011;499;42.648;23.270;2022-12-08T01:43:49;1.00;;;1.00;;
1020;SDS011;499;42.648;23.270;2022-12-08T01:46:22;2.07;;;1.83;;
1020;SDS011;499;42.648;23.270;2022-12-08T01:48:52;1.07;;;0.97;;
1020;SDS011;499;42.648;23.270;2022-12-08T01:51:22;1.63;;;1.53;;
1020;SDS011;499;42.648;23.270;2022-12-08T01:53:49;1.20;;;1.10;;
1020;SDS011;499;42.648;23.270;2022-12-08T01:56:18;1.30;;;1.20;;
1020;SDS011;499;42.648;23.270;2022-12-08T01:58:52;2.93;;;2.83;;
1020;SDS011;499;42.648;23.270;2022-12-08T02:01:21;0.90;;;0.90;;
1020;SDS011;499;42.648;23.270;2022-12-08T02:03:50;0.87;;;0.87;;
1020;SDS011;499;42.648;23.270;2022-12-08T02:06:22;0.80;;;0.80;;
1020;SDS011;499;42.648;23.270;2022-12-08T02:08:50;1.10;;;0.97;;
1020;SDS011;499;42.648;23.270;2022-12-08T02:11:19;1.67;;;1.13;;
1020;SDS011;499;42.648;23.270;2022-12-08T02:13:46;1.40;;;1.30;;
1020;SDS011;499;42.648;23.270;2022-12-08T02:16:19;0.90;;;0.90;;
1020;SDS011;499;42.648;23.270;2022-12-08T02:18:59;0.90;;;0.90;;
1020;SDS011;499;42.648;23.270;2022-12-08T02:21:40;0.80;;;0.80;;
1020;SDS011;499;42.648;23.270;2022-12-08T02:24:17;1.00;;;0.90;;
1020;SDS011;499;42.648;23.270;2022-12-08T02:30:01;0.90;;;0.90;;
1020;SDS011;499;42.648;23.270;2022-12-08T02:32:42;1.23;;;1.13;;
1020;SDS011;499;42.648;23.270;2022-12-08T02:35:33;1.20;;;1.10;;
1020;SDS011;499;42.648;23.270;2022-12-08T02:38:07;1.43;;;1.33;;
1020;SDS011;499;42.648;23.270;2022-12-08T02:40:43;0.70;;;0.70;;
1020;SDS011;499;42.648;23.270;2022-12-08T02:43:20;2.80;;;2.60;;
1020;SDS011;499;42.648;23.270;2022-12-08T02:45:54;1.33;;;1.23;;
1020;SDS011;499;42.648;23.270;2022-12-08T02:48:25;0.90;;;0.90;;
1020;SDS011;499;42.648;23.270;2022-12-08T02:50:54;1.23;;;1.00;;
1020;SDS011;499;42.648;23.270;2022-12-08T02:53:21;1.53;;;1.43;;
1020;SDS011;499;42.648;23.270;2022-12-08T02:55:52;1.37;;;1.00;;
1020;SDS011;499;42.648;23.270;2022-12-08T02:58:36;1.10;;;1.10;;
1020;SDS011;499;42.648;23.270;2022-12-08T03:01:33;1.00;;;1.00;;
1020;SDS011;499;42.648;23.270;2022-12-08T03:04:10;1.83;;;1.73;;
1020;SDS011;499;42.648;23.270;2022-12-08T03:06:49;1.10;;;1.00;;
1020;SDS011;499;42.648;23.270;2022-12-08T03:09:23;1.67;;;1.57;;
1020;SDS011;499;42.648;23.270;2022-12-08T03:12:02;0.90;;;0.90;;
1020;SDS011;499;42.648;23.270;2022-12-08T03:14:37;1.40;;;1.30;;
1020;SDS011;499;42.648;23.270;2022-12-08T03:17:09;1.00;;;1.00;;
1020;SDS011;499;42.648;23.270;2022-12-08T03:19:38;0.90;;;0.90;;
1020;SDS011;499;42.648;23.270;2022-12-08T03:22:09;2.07;;;1.97;;
1020;SDS011;499;42.648;23.270;2022-12-08T03:24:39;1.40;;;1.30;;
1020;SDS011;499;42.648;23.270;2022-12-08T03:27:10;1.00;;;0.90;;
1020;SDS011;499;42.648;23.270;2022-12-08T03:29:40;0.93;;;0.93;;
1020;SDS011;499;42.648;23.270;2022-12-08T03:32:09;1.43;;;1.33;;
1020;SDS011;499;42.648;23.270;2022-12-08T03:34:41;0.80;;;0.80;;
1020;SDS011;499;42.648;23.270;2022-12-08T03:37:13;0.70;;;0.70;;
1020;SDS011;499;42.648;23.270;2022-12-08T03:39:40;0.90;;;0.90;;
1020;SDS011;499;42.648;23.270;2022-12-08T03:42:08;0.70;;;0.70;;
1020;SDS011;499;42.648;23.270;2022-12-08T03:44:35;1.50;;;1.40;;
1020;SDS011;499;42.648;23.270;2022-12-08T03:47:02;0.70;;;0.70;;
1020;SDS011;499;42.648;23.270;2022-12-08T03:49:29;0.70;;;0.70;;
1020;SDS011;499;42.648;23.270;2022-12-08T03:51:56;0.80;;;0.80;;
1020;SDS011;499;42.648;23.270;2022-12-08T03:54:24;0.90;;;0.90;;
1020;SDS011;499;42.648;23.270;2022-12-08T03:56:51;0.80;;;0.80;;
1020;SDS011;499;42.648;23.270;2022-12-08T03:59:18;0.70;;;0.70;;
1020;SDS011;499;42.648;23.270;2022-12-08T04:01:45;1.13;;;1.03;;
1020;SDS011;499;42.648;23.270;2022-12-08T04:04:12;1.33;;;1.23;;
1020;SDS011;499;42.648;23.270;2022-12-08T04:06:39;0.80;;;0.80;;
1020;SDS011;499;42.648;23.270;2022-12-08T04:09:06;1.10;;;1.00;;
1020;SDS011;499;42.648;23.270;2022-12-08T04:11:35;1.57;;;1.47;;
1020;SDS011;499;42.648;23.270;2022-12-08T04:14:02;2.83;;;2.70;;
1020;SDS011;499;42.648;23.270;2022-12-08T04:16:29;0.80;;;0.80;;
1020;SDS011;499;42.648;23.270;2022-12-08T04:18:56;1.53;;;1.43;;
1020;SDS011;499;42.648;23.270;2022-12-08T04:21:23;1.60;;;1.50;;
1020;SDS011;499;42.648;23.270;2022-12-08T04:23:50;1.67;;;1.43;;
1020;SDS011;499;42.648;23.270;2022-12-08T04:26:17;0.80;;;0.80;;
1020;SDS011;499;42.648;23.270;2022-12-08T04:28:46;3.35;;;1.50;;
1020;SDS011;499;42.648;23.270;2022-12-08T04:31:13;1.27;;;1.13;;
1020;SDS011;499;42.648;23.270;2022-12-08T04:33:40;1.03;;;1.03;;
1020;SDS011;499;42.648;23.270;2022-12-08T04:36:07;1.43;;;1.33;;
1020;SDS011;499;42.648;23.270;2022-12-08T04:38:35;0.80;;;0.80;;
1020;SDS011;499;42.648;23.270;2022-12-08T04:41:02;1.40;;;1.30;;
1020;SDS011;499;42.648;23.270;2022-12-08T04:43:29;0.80;;;0.80;;
1020;SDS011;499;42.648;23.270;2022-12-08T04:45:58;1.30;;;1.20;;
1020;SDS011;499;42.648;23.270;2022-12-08T04:48:25;1.30;;;1.20;;
1020;SDS011;499;42.648;23.270;2022-12-08T04:50:52;2.20;;;2.00;;
1020;SDS011;499;42.648;23.270;2022-12-08T04:53:19;3.33;;;1.70;;
1020;SDS011;499;42.648;23.270;2022-12-08T04:55:46;2.23;;;2.13;;
1020;SDS011;499;42.648;23.270;2022-12-08T04:58:14;4.30;;;4.10;;
1020;SDS011;499;42.648;23.270;2022-12-08T05:00:43;4.37;;;4.07;;
1020;SDS011;499;42.648;23.270;2022-12-08T05:03:12;1.90;;;1.80;;
1020;SDS011;499;42.648;23.270;2022-12-08T05:05:39;1.00;;;0.90;;
1020;SDS011;499;42.648;23.270;2022-12-08T05:08:07;1.20;;;1.20;;
1020;SDS011;499;42.648;23.270;2022-12-08T05:10:35;1.53;;;1.43;;
1020;SDS011;499;42.648;23.270;2022-12-08T05:13:02;1.00;;;1.00;;
1020;SDS011;499;42.648;23.270;2022-12-08T05:15:29;1.20;;;1.10;;
1020;SDS011;499;42.648;23.270;2022-12-08T05:17:56;1.83;;;1.73;;
1020;SDS011;499;42.648;23.270;2022-12-08T05:20:25;2.10;;;1.97;;
1020;SDS011;499;42.648;23.270;2022-12-08T05:22:52;0.73;;;0.73;;
1020;SDS011;499;42.648;23.270;2022-12-08T05:25:19;1.93;;;1.83;;
1020;SDS011;499;42.648;23.270;2022-12-08T05:27:46;0.90;;;0.90;;
1020;SDS011;499;42.648;23.270;2022-12-08T05:30:13;1.00;;;1.00;;
1020;SDS011;499;42.648;23.270;2022-12-08T05:32:40;0.90;;;0.90;;
1020;SDS011;499;42.648;23.270;2022-12-08T05:35:07;2.20;;;1.57;;
1020;SDS011;499;42.648;23.270;2022-12-08T05:37:36;1.47;;;1.37;;
1020;SDS011;499;42.648;23.270;2022-12-08T05:40:03;0.73;;;0.73;;
1020;SDS011;499;42.648;23.270;2022-12-08T05:42:33;0.97;;;0.97;;
1020;SDS011;499;42.648;23.270;2022-12-08T05:45:00;0.80;;;0.80;;
1020;SDS011;499;42.648;23.270;2022-12-08T05:47:27;2.03;;;1.93;;
1020;SDS011;499;42.648;23.270;2022-12-08T05:49:54;0.80;;;0.80;;
1020;SDS011;499;42.648;23.270;2022-12-08T05:52:21;1.43;;;1.33;;
1020;SDS011;499;42.648;23.270;2022-12-08T05:54:49;2.23;;;2.13;;
1020;SDS011;499;42.648;23.270;2022-12-08T05:57:16;0.87;;;0.87;;
1020;SDS011;499;42.648;23.270;2022-12-08T05:59:44;1.60;;;1.50;;
1020;SDS011;499;42.648;23.270;2022-12-08T06:02:11;1.27;;;1.17;;
1020;SDS011;499;42.648;23.270;2022-12-08T06:04:38;1.00;;;1.00;;
1020;SDS011;499;42.648;23.270;2022-12-08T06:07:07;1.37;;;1.30;;
1020;SDS011;499;42.648;23.270;2022-12-08T06:09:34;1.83;;;1.27;;
1020;SDS011;499;42.648;23.270;2022-12-08T06:12:03;1.90;;;1.80;;
1020;SDS011;499;42.648;23.270;2022-12-08T06:14:30;1.33;;;1.20;;
1020;SDS011;499;42.648;23.270;2022-12-08T06:16:57;1.77;;;1.67;;
1020;SDS011;499;42.648;23.270;2022-12-08T06:19:24;1.67;;;1.57;;
1020;SDS011;499;42.648;23.270;2022-12-08T06:21:51;1.53;;;1.43;;
1020;SDS011;499;42.648;23.270;2022-12-08T06:24:18;1.27;;;1.17;;
1020;SDS011;499;42.648;23.270;2022-12-08T06:26:45;1.00;;;1.00;;
1020;SDS011;499;42.648;23.270;2022-12-08T06:29:14;1.27;;;1.17;;
1020;SDS011;499;42.648;23.270;2022-12-08T06:31:41;1.17;;;1.10;;
1020;SDS011;499;42.648;23.270;2022-12-08T06:34:08;0.80;;;0.80;;
1020;SDS011;499;42.648;23.270;2022-12-08T06:36:35;2.40;;;2.20;;
1020;SDS011;499;42.648;23.270;2022-12-08T06:39:03;1.20;;;1.13;;
1020;SDS011;499;42.648;23.270;2022-12-08T06:41:30;3.33;;;1.60;;
1020;SDS011;499;42.648;23.270;2022-12-08T06:44:19;2.20;;;2.03;;
1020;SDS011;499;42.648;23.270;2022-12-08T06:46:46;1.53;;;1.43;;
1020;SDS011;499;42.648;23.270;2022-12-08T06:49:13;1.27;;;1.17;;
1020;SDS011;499;42.648;23.270;2022-12-08T06:51:40;1.47;;;1.37;;
1020;SDS011;499;42.648;23.270;2022-12-08T06:54:07;1.03;;;1.00;;
1020;SDS011;499;42.648;23.270;2022-12-08T06:56:35;1.30;;;1.30;;
1020;SDS011;499;42.648;23.270;2022-12-08T06:59:02;1.97;;;1.73;;
1020;SDS011;499;42.648;23.270;2022-12-08T07:01:30;1.20;;;1.10;;
1020;SDS011;499;42.648;23.270;2022-12-08T07:03:57;1.43;;;1.33;;
1020;SDS011;499;42.648;23.270;2022-12-08T07:06:24;0.70;;;0.70;;
1020;SDS011;499;42.648;23.270;2022-12-08T07:08:51;1.33;;;1.23;;
1020;SDS011;499;42.648;23.270;2022-12-08T07:11:18;2.30;;;2.10;;
1020;SDS011;499;42.648;23.270;2022-12-08T07:13:46;1.53;;;1.43;;
1020;SDS011;499;42.648;23.270;2022-12-08T07:16:12;1.23;;;1.13;;
1020;SDS011;499;42.648;23.270;2022-12-08T07:18:41;1.20;;;1.10;;
1020;SDS011;499;42.648;23.270;2022-12-08T07:21:09;2.17;;;2.07;;
1020;SDS011;499;42.648;23.270;2022-12-08T07:23:39;0.90;;;0.90;;
1020;SDS011;499;42.648;23.270;2022-12-08T07:26:07;1.40;;;1.30;;
1020;SDS011;499;42.648;23.270;2022-12-08T07:28:36;0.90;;;0.90;;
1020;SDS011;499;42.648;23.270;2022-12-08T07:31:05;1.37;;;1.27;;
1020;SDS011;499;42.648;23.270;2022-12-08T07:33:33;0.80;;;0.80;;
1020;SDS011;499;42.648;23.270;2022-12-08T07:36:03;2.33;;;2.23;;
1020;SDS011;499;42.648;23.270;2022-12-08T07:38:31;1.80;;;1.70;;
1020;SDS011;499;42.648;23.270;2022-12-08T07:40:58;1.80;;;1.63;;
1020;SDS011;499;42.648;23.270;2022-12-08T07:43:25;1.63;;;1.53;;
1020;SDS011;499;42.648;23.270;2022-12-08T07:45:52;3.07;;;1.43;;
1020;SDS011;499;42.648;23.270;2022-12-08T07:48:19;1.23;;;1.13;;
1020;SDS011;499;42.648;23.270;2022-12-08T07:50:46;2.10;;;2.00;;
1020;SDS011;499;42.648;23.270;2022-12-08T07:53:15;1.63;;;1.53;;
1020;SDS011;499;42.648;23.270;2022-12-08T07:55:42;2.40;;;2.20;;
1020;SDS011;499;42.648;23.270;2022-12-08T07:58:09;1.23;;;1.13;;
1020;SDS011;499;42.648;23.270;2022-12-08T08:00:37;2.03;;;1.43;;
1020;SDS011;499;42.648;23.270;2022-12-08T08:03:04;1.93;;;1.73;;
1020;SDS011;499;42.648;23.270;2022-12-08T08:05:32;1.77;;;1.67;;
1020;SDS011;499;42.648;23.270;2022-12-08T08:08:00;1.87;;;1.77;;
1020;SDS011;499;42.648;23.270;2022-12-08T08:10:28;1.73;;;1.63;;
1020;SDS011;499;42.648;23.270;2022-12-08T08:12:57;3.33;;;3.23;;
1020;SDS011;499;42.648;23.270;2022-12-08T08:15:24;2.07;;;1.97;;
1020;SDS011;499;42.648;23.270;2022-12-08T08:17:51;3.37;;;3.07;;
1020;SDS011;499;42.648;23.270;2022-12-08T08:20:19;2.07;;;1.53;;
1020;SDS011;499;42.648;23.270;2022-12-08T08:22:47;2.27;;;2.10;;
1020;SDS011;499;42.648;23.270;2022-12-08T08:25:16;1.80;;;1.70;;
1020;SDS011;499;42.648;23.270;2022-12-08T08:27:45;1.20;;;1.10;;
1020;SDS011;499;42.648;23.270;2022-12-08T08:30:12;1.27;;;1.17;;
1020;SDS011;499;42.648;23.270;2022-12-08T08:32:40;1.90;;;1.80;;
1020;SDS011;499;42.648;23.270;2022-12-08T08:35:08;1.37;;;1.27;;
1020;SDS011;499;42.648;23.270;2022-12-08T08:37:35;1.17;;;1.07;;
1020;SDS011;499;42.648;23.270;2022-12-08T08:40:02;1.40;;;1.30;;
1020;SDS011;499;42.648;23.270;2022-12-08T08:42:30;1.50;;;1.40;;
1020;SDS011;499;42.648;23.270;2022-12-08T08:44:58;1.40;;;1.30;;
1020;SDS011;499;42.648;23.270;2022-12-08T08:47:25;1.53;;;1.43;;
1020;SDS011;499;42.648;23.270;2022-12-08T08:49:52;1.33;;;1.23;;
1020;SDS011;499;42.648;23.270;2022-12-08T08:52:19;2.27;;;2.07;;
1020;SDS011;499;42.648;23.270;2022-12-08T08:54:46;1.37;;;1.27;;
1020;SDS011;499;42.648;23.270;2022-12-08T08:57:13;2.20;;;1.60;;
1020;SDS011;499;42.648;23.270;2022-12-08T08:59:41;1.90;;;1.40;;
1020;SDS011;499;42.648;23.270;2022-12-08T09:02:12;4.83;;;1.63;;
1020;SDS011;499;42.648;23.270;2022-12-08T09:04:42;1.83;;;1.73;;
1020;SDS011;499;42.648;23.270;2022-12-08T09:07:10;2.63;;;2.43;;
1020;SDS011;499;42.648;23.270;2022-12-08T09:09:37;1.70;;;1.60;;
1020;SDS011;499;42.648;23.270;2022-12-08T09:12:04;2.43;;;2.23;;
1020;SDS011;499;42.648;23.270;2022-12-08T09:14:32;1.10;;;0.80;;
1020;SDS011;499;42.648;23.270;2022-12-08T09:16:59;2.20;;;2.00;;
1020;SDS011;499;42.648;23.270;2022-12-08T09:19:27;1.77;;;1.60;;
1020;SDS011;499;42.648;23.270;2022-12-08T09:21:54;3.13;;;2.93;;
1020;SDS011;499;42.648;23.270;2022-12-08T09:24:21;2.53;;;2.43;;
1020;SDS011;499;42.648;23.270;2022-12-08T09:26:48;1.97;;;1.57;;
1020;SDS011;499;42.648;23.270;2022-12-08T09:29:16;1.47;;;1.37;;
1020;SDS011;499;42.648;23.270;2022-12-08T09:31:43;11.63;;;8.50;;
1020;SDS011;499;42.648;23.270;2022-12-08T09:34:10;11.30;;;9.67;;
1020;SDS011;499;42.648;23.270;2022-12-08T09:36:39;1.13;;;1.03;;
1020;SDS011;499;42.648;23.270;2022-12-08T09:39:06;15.77;;;12.60;;
1020;SDS011;499;42.648;23.270;2022-12-08T09:41:34;4.67;;;4.17;;
1020;SDS011;499;42.648;23.270;2022-12-08T09:44:06;5.60;;;5.10;;
1020;SDS011;499;42.648;23.270;2022-12-08T09:46:44;14.30;;;9.43;;
1020;SDS011;499;42.648;23.270;2022-12-08T09:49:17;6.10;;;4.53;;
1020;SDS011;499;42.648;23.270;2022-12-08T09:51:48;11.90;;;10.17;;
1020;SDS011;499;42.648;23.270;2022-12-08T09:54:16;10.40;;;8.50;;
1020;SDS011;499;42.648;23.270;2022-12-08T09:56:46;11.53;;;9.40;;
1020;SDS011;499;42.648;23.270;2022-12-08T09:59:19;10.40;;;8.57;;
1020;SDS011;499;42.648;23.270;2022-12-08T10:01:48;11.10;;;10.00;;
1020;SDS011;499;42.648;23.270;2022-12-08T10:04:19;12.97;;;11.67;;
1020;SDS011;499;42.648;23.270;2022-12-08T10:06:52;13.33;;;10.23;;
1020;SDS011;499;42.648;23.270;2022-12-08T10:09:27;12.03;;;10.00;;
1020;SDS011;499;42.648;23.270;2022-12-08T10:12:02;10.50;;;9.40;;
1020;SDS011;499;42.648;23.270;2022-12-08T10:14:37;9.40;;;8.47;;
1020;SDS011;499;42.648;23.270;2022-12-08T10:17:19;14.73;;;13.23;;
1020;SDS011;499;42.648;23.270;2022-12-08T10:19:50;15.67;;;13.10;;
1020;SDS011;499;42.648;23.270;2022-12-08T10:22:25;14.07;;;11.90;;
1020;SDS011;499;42.648;23.270;2022-12-08T10:24:57;15.47;;;11.17;;
1020;SDS011;499;42.648;23.270;2022-12-08T10:27:26;12.07;;;10.80;;
1020;SDS011;499;42.648;23.270;2022-12-08T10:29:53;16.93;;;12.53;;
1020;SDS011;499;42.648;23.270;2022-12-08T10:32:21;12.90;;;11.57;;
1020;SDS011;499;42.648;23.270;2022-12-08T10:34:57;12.20;;;9.67;;
1020;SDS011;499;42.648;23.270;2022-12-08T10:37:27;10.50;;;9.23;;
1020;SDS011;499;42.648;23.270;2022-12-08T10:39:57;14.30;;;12.13;;
1020;SDS011;499;42.648;23.270;2022-12-08T10:42:27;10.83;;;9.70;;
1020;SDS011;499;42.648;23.270;2022-12-08T10:45:02;14.33;;;10.20;;
1020;SDS011;499;42.648;23.270;2022-12-08T10:47:41;14.73;;;10.67;;
1020;SDS011;499;42.648;23.270;2022-12-08T10:50:22;10.43;;;8.50;;
1020;SDS011;499;42.648;23.270;2022-12-08T10:52:55;9.10;;;8.20;;
1020;SDS011;499;42.648;23.270;2022-12-08T10:55:23;7.30;;;6.37;;
1020;SDS011;499;42.648;23.270;2022-12-08T10:57:51;10.23;;;7.50;;
1020;SDS011;499;42.648;23.270;2022-12-08T11:00:19;9.07;;;6.47;;
1020;SDS011;499;42.648;23.270;2022-12-08T11:02:50;3.87;;;3.50;;
1020;SDS011;499;42.648;23.270;2022-12-08T11:05:21;6.00;;;4.20;;
1020;SDS011;499;42.648;23.270;2022-12-08T11:07:51;3.67;;;2.93;;
1020;SDS011;499;42.648;23.270;2022-12-08T11:10:26;4.30;;;2.87;;
1020;SDS011;499;42.648;23.270;2022-12-08T11:12:59;3.63;;;2.37;;
1020;SDS011;499;42.648;23.270;2022-12-08T11:15:30;3.30;;;2.70;;
1020;SDS011;499;42.648;23.270;2022-12-08T11:18:05;4.50;;;3.20;;
1020;SDS011;499;42.648;23.270;2022-12-08T11:20:38;6.80;;;4.00;;
1020;SDS011;499;42.648;23.270;2022-12-08T11:23:17;3.87;;;2.67;;
1020;SDS011;499;42.648;23.270;2022-12-08T11:25:47;3.23;;;2.40;;
1020;SDS011;499;42.648;23.270;2022-12-08T11:28:18;4.53;;;3.33;;
1020;SDS011;499;42.648;23.270;2022-12-08T11:30:51;6.40;;;5.07;;
1020;SDS011;499;42.648;23.270;2022-12-08T11:33:22;4.20;;;3.30;;
1020;SDS011;499;42.648;23.270;2022-12-08T11:35:53;5.80;;;4.17;;
1020;SDS011;499;42.648;23.270;2022-12-08T11:38:24;4.37;;;3.77;;
1020;SDS011;499;42.648;23.270;2022-12-08T11:40:54;4.87;;;4.43;;
1020;SDS011;499;42.648;23.270;2022-12-08T11:43:26;4.40;;;3.27;;
1020;SDS011;499;42.648;23.270;2022-12-08T11:46:00;6.50;;;4.83;;
1020;SDS011;499;42.648;23.270;2022-12-08T11:48:31;6.47;;;5.30;;
1020;SDS011;499;42.648;23.270;2022-12-08T11:51:02;7.43;;;5.73;;
1020;SDS011;499;42.648;23.270;2022-12-08T11:53:43;5.57;;;4.60;;
1020;SDS011;499;42.648;23.270;2022-12-08T11:56:19;4.63;;;3.93;;
1020;SDS011;499;42.648;23.270;2022-12-08T11:58:50;4.87;;;3.80;;
1020;SDS011;499;42.648;23.270;2022-12-08T12:01:21;5.33;;;3.80;;
1020;SDS011;499;42.648;23.270;2022-12-08T12:03:52;4.57;;;4.00;;
1020;SDS011;499;42.648;23.270;2022-12-08T12:06:33;6.00;;;5.40;;
1020;SDS011;499;42.648;23.270;2022-12-08T12:09:21;3.67;;;3.37;;
1020;SDS011;499;42.648;23.270;2022-12-08T12:12:03;6.00;;;4.20;;
1020;SDS011;499;42.648;23.270;2022-12-08T12:15:01;6.83;;;4.20;;
1020;SDS011;499;42.648;23.270;2022-12-08T12:17:51;13.43;;;4.50;;
1020;SDS011;499;42.648;23.270;2022-12-08T12:20:23;4.03;;;3.73;;
1020;SDS011;499;42.648;23.270;2022-12-08T12:22:55;6.77;;;4.37;;
1020;SDS011;499;42.648;23.270;2022-12-08T12:25:26;6.00;;;4.13;;
1020;SDS011;499;42.648;23.270;2022-12-08T12:27:56;5.23;;;4.03;;
1020;SDS011;499;42.648;23.270;2022-12-08T12:30:26;5.30;;;3.47;;
1020;SDS011;499;42.648;23.270;2022-12-08T12:32:59;5.07;;;4.20;;
1020;SDS011;499;42.648;23.270;2022-12-08T12:35:31;5.23;;;3.80;;
1020;SDS011;499;42.648;23.270;2022-12-08T12:38:02;5.10;;;4.30;;
1020;SDS011;499;42.648;23.270;2022-12-08T12:40:56;4.40;;;3.40;;
1020;SDS011;499;42.648;23.270;2022-12-08T12:43:31;4.53;;;3.73;;
1020;SDS011;499;42.648;23.270;2022-12-08T12:55:20;4.33;;;3.73;;
1020;SDS011;499;42.648;23.270;2022-12-08T12:57:53;5.43;;;4.00;;
1020;SDS011;499;42.648;23.270;2022-12-08T13:00:23;6.37;;;3.67;;
1020;SDS011;499;42.648;23.270;2022-12-08T13:02:53;4.27;;;3.20;;
1020;SDS011;499;42.648;23.270;2022-12-08T13:05:22;3.20;;;2.20;;
1020;SDS011;499;42.648;23.270;2022-12-08T13:07:52;3.73;;;3.30;;
1020;SDS011;499;42.648;23.270;2022-12-08T13:10:22;4.40;;;3.70;;
1020;SDS011;499;42.648;23.270;2022-12-08T13:13:02;4.77;;;3.27;;
1020;SDS011;499;42.648;23.270;2022-12-08T13:15:34;4.63;;;3.13;;
1020;SDS011;499;42.648;23.270;2022-12-08T13:18:04;4.30;;;3.60;;
1020;SDS011;499;42.648;23.270;2022-12-08T13:20:38;4.40;;;3.07;;
1020;SDS011;499;42.648;23.270;2022-12-08T13:23:27;4.83;;;3.27;;
1020;SDS011;499;42.648;23.270;2022-12-08T13:26:16;5.80;;;3.47;;
1020;SDS011;499;42.648;23.270;2022-12-08T13:31:40;4.93;;;3.73;;
1020;SDS011;499;42.648;23.270;2022-12-08T13:34:11;4.70;;;3.60;;
1020;SDS011;499;42.648;23.270;2022-12-08T13:36:42;5.33;;;3.80;;
1020;SDS011;499;42.648;23.270;2022-12-08T13:39:18;4.87;;;3.30;;
1020;SDS011;499;42.648;23.270;2022-12-08T13:41:51;5.43;;;3.63;;
1020;SDS011;499;42.648;23.270;2022-12-08T13:44:25;3.80;;;3.40;;
1020;SDS011;499;42.648;23.270;2022-12-08T13:47:00;4.20;;;3.30;;
1020;SDS011;499;42.648;23.270;2022-12-08T13:49:32;5.10;;;3.97;;
1020;SDS011;499;42.648;23.270;2022-12-08T13:52:02;4.87;;;4.47;;
1020;SDS011;499;42.648;23.270;2022-12-08T13:54:31;6.27;;;4.73;;
1020;SDS011;499;42.648;23.270;2022-12-08T13:57:02;4.70;;;3.40;;
1020;SDS011;499;42.648;23.270;2022-12-08T13:59:33;3.80;;;3.30;;
1020;SDS011;499;42.648;23.270;2022-12-08T14:02:02;7.27;;;6.57;;
1020;SDS011;499;42.648;23.270;2022-12-08T14:04:42;7.60;;;6.67;;
1020;SDS011;499;42.648;23.270;2022-12-08T14:07:11;8.30;;;7.47;;
1020;SDS011;499;42.648;23.270;2022-12-08T14:09:39;6.30;;;5.47;;
1020;SDS011;499;42.648;23.270;2022-12-08T14:12:07;6.37;;;5.03;;
1020;SDS011;499;42.648;23.270;2022-12-08T14:14:44;5.87;;;4.83;;
1020;SDS011;499;42.648;23.270;2022-12-08T14:17:15;9.13;;;5.50;;
1020;SDS011;499;42.648;23.270;2022-12-08T14:19:46;7.00;;;5.77;;
1020;SDS011;499;42.648;23.270;2022-12-08T14:22:19;6.30;;;3.97;;
1020;SDS011;499;42.648;23.270;2022-12-08T14:24:47;4.10;;;3.57;;
1020;SDS011;499;42.648;23.270;2022-12-08T14:27:16;4.30;;;3.67;;
1020;SDS011;499;42.648;23.270;2022-12-08T14:29:46;4.50;;;4.07;;
1020;SDS011;499;42.648;23.270;2022-12-08T14:32:24;9.60;;;7.67;;
1020;SDS011;499;42.648;23.270;2022-12-08T14:34:55;5.50;;;5.00;;
1020;SDS011;499;42.648;23.270;2022-12-08T14:37:24;5.37;;;3.40;;
1020;SDS011;499;42.648;23.270;2022-12-08T14:39:52;3.43;;;2.50;;
1020;SDS011;499;42.648;23.270;2022-12-08T14:42:24;5.10;;;3.60;;
1020;SDS011;499;42.648;23.270;2022-12-08T14:44:58;4.03;;;3.63;;
1020;SDS011;499;42.648;23.270;2022-12-08T14:47:30;3.90;;;3.60;;
1020;SDS011;499;42.648;23.270;2022-12-08T14:49:58;5.70;;;4.47;;
1020;SDS011;499;42.648;23.270;2022-12-08T14:52:26;3.40;;;3.00;;
1020;SDS011;499;42.648;23.270;2022-12-08T14:54:54;4.57;;;3.70;;
1020;SDS011;499;42.648;23.270;2022-12-08T14:57:22;4.87;;;4.37;;
1020;SDS011;499;42.648;23.270;2022-12-08T14:59:57;5.03;;;3.93;;
1020;SDS011;499;42.648;23.270;2022-12-08T15:02:33;4.07;;;3.67;;
1020;SDS011;499;42.648;23.270;2022-12-08T15:05:10;4.23;;;3.37;;
1020;SDS011;499;42.648;23.270;2022-12-08T15:07:45;3.53;;;2.93;;
1020;SDS011;499;42.648;23.270;2022-12-08T15:10:19;5.77;;;4.20;;
1020;SDS011;499;42.648;23.270;2022-12-08T15:13:04;4.30;;;3.90;;
1020;SDS011;499;42.648;23.270;2022-12-08T15:15:46;4.00;;;2.67;;
1020;SDS011;499;42.648;23.270;2022-12-08T15:18:17;4.27;;;3.30;;
1020;SDS011;499;42.648;23.270;2022-12-08T15:20:46;3.60;;;3.30;;
1020;SDS011;499;42.648;23.270;2022-12-08T15:23:19;3.73;;;3.43;;
1020;SDS011;499;42.648;23.270;2022-12-08T15:25:51;4.40;;;4.00;;
1020;SDS011;499;42.648;23.270;2022-12-08T15:28:20;4.63;;;4.23;;
1020;SDS011;499;42.648;23.270;2022-12-08T15:30:49;4.80;;;4.40;;
1020;SDS011;499;42.648;23.270;2022-12-08T15:33:18;4.87;;;4.23;;
1020;SDS011;499;42.648;23.270;2022-12-08T15:35:46;3.23;;;2.93;;
1020;SDS011;499;42.648;23.270;2022-12-08T15:38:15;4.50;;;3.37;;
1020;SDS011;499;42.648;23.270;2022-12-08T15:40:45;3.10;;;2.77;;
1020;SDS011;499;42.648;23.270;2022-12-08T15:43:13;4.83;;;4.30;;
1020;SDS011;499;42.648;23.270;2022-12-08T15:45:40;3.70;;;2.90;;
1020;SDS011;499;42.648;23.270;2022-12-08T15:48:10;3.43;;;3.00;;
1020;SDS011;499;42.648;23.270;2022-12-08T15:50:42;8.23;;;6.83;;